Time;durP1;ratioP1;P1;durP2;ratioP2;P2;SDS_P1;SDS_P2;PMS_P1;PMS_P2;Temp;Humidity;BMP_temperature;BMP_pressure;BME280_temperature;BME280_humidity;BME280_pressure;Samples;Min_cycle;Max_cycle;Signal;HPM_P1;HPM_P2
2023/01/13 00:01:34;;;;;;;1.35;1.30;;;;;;;4.58;68.03;100943.66;18418956;31;20173;-57
2023/01/13 00:11:37;;;;;;;1.45;1.35;;;;;;;4.65;67.69;100938.69;18418574;32;20112;-58
2023/01/13 00:21:42;;;;;;;27.33;3.37;;;;;;;4.52;67.79;100930.53;18417782;32;20090;-57
2023/01/13 00:31:45;;;;;;;4.35;2.75;;;;;;;4.75;67.75;100930.38;18416944;32;20119;-57
2023/01/13 00:52:11;;;;;;;2.55;2.45;;;;;;;4.43;68.51;100922.47;18426333;32;20119;-57
2023/01/13 01:02:16;;;;;;;2.17;2.08;;;;;;;4.55;69.03;100929.75;18425802;31;20365;-57
2023/01/13 01:12:19;;;;;;;1.92;1.83;;;;;;;4.79;68.27;100933.91;18425586;32;20084;-57
2023/01/13 01:22:24;;;;;;;0.77;0.77;;;;;;;4.89;68.51;100922.13;18425377;32;20384;-57
2023/01/13 01:32:27;;;;;;;2.53;2.42;;;;;;;5.12;67.83;100909.88;18424830;32;20101;-57
2023/01/13 01:52:55;;;;;;;1.60;1.50;;;;;;;5.10;67.60;100886.53;18423232;32;20093;-57
2023/01/13 02:03:00;;;;;;;2.80;2.37;;;;;;;4.97;68.16;100887.87;18423626;32;20107;-57
2023/01/13 02:13:06;;;;;;;0.80;0.80;;;;;;;5.07;68.03;100878.69;18423522;32;20420;-57
2023/01/13 02:34:08;;;;;;;2.60;2.45;;;;;;;5.34;67.60;100862.16;18422917;32;20428;-57
2023/01/13 02:44:12;;;;;;;1.25;1.25;;;;;;;5.28;67.86;100851.63;18422309;32;20103;-58
2023/01/13 02:54:19;;;;;;;1.73;1.62;;;;;;;5.31;67.81;100846.56;18421716;32;20097;-57
2023/01/13 03:04:49;;;;;;;2.60;2.45;;;;;;;5.25;67.29;100838.59;18422003;32;20098;-57
2023/01/13 03:14:56;;;;;;;2.15;2.05;;;;;;;5.04;67.68;100828.53;18420773;32;20757;-58
2023/01/13 03:25:06;;;;;;;1.42;1.37;;;;;;;5.02;67.12;100831.06;18421861;32;20378;-57
2023/01/13 03:35:15;;;;;;;2.28;2.17;;;;;;;5.03;66.83;100827.69;18421289;32;20085;-57
2023/01/13 03:45:19;;;;;;;0.95;0.95;;;;;;;4.91;67.22;100827.31;18419773;32;20362;-58
2023/01/13 03:55:28;;;;;;;1.77;1.67;;;;;;;4.97;67.06;100822.34;18419283;32;20111;-57
2023/01/13 04:05:34;;;;;;;2.85;2.65;;;;;;;4.97;67.58;100815.44;18418947;32;20094;-57
2023/01/13 04:15:39;;;;;;;1.58;1.48;;;;;;;5.10;67.54;100811.47;18422050;32;20097;-57
2023/01/13 04:25:43;;;;;;;4.30;1.98;;;;;;;5.12;67.72;100820.16;18428177;32;20104;-57
2023/01/13 04:35:48;;;;;;;5.05;4.78;;;;;;;5.00;67.76;100823.28;18427041;32;20111;-57
2023/01/13 04:45:51;;;;;;;2.17;1.98;;;;;;;5.03;67.72;100830.28;18426900;32;20093;-58
2023/01/13 04:55:56;;;;;;;1.10;1.02;;;;;;;4.98;68.66;100818.91;18426731;32;20360;-58
2023/01/13 05:05:59;;;;;;;0.75;0.75;;;;;;;4.73;69.57;100825.97;18426966;32;20184;-57
2023/01/13 05:26:23;;;;;;;3.53;3.33;;;;;;;5.19;69.00;100838.44;18426997;31;20157;-58
2023/01/13 05:36:27;;;;;;;1.02;1.02;;;;;;;5.31;68.77;100831.00;18424783;32;20093;-58
2023/01/13 05:46:30;;;;;;;0.80;0.80;;;;;;;5.34;68.53;100837.97;18424471;32;20101;-58
2023/01/13 05:56:35;;;;;;;1.87;1.20;;;;;;;5.38;68.29;100840.66;18424166;32;20120;-57
2023/01/13 06:06:38;;;;;;;0.68;0.68;;;;;;;5.36;67.87;100842.34;18423540;32;20112;-57
2023/01/13 06:16:44;;;;;;;0.70;0.70;;;;;;;5.48;68.12;100846.09;18422769;32;20379;-58
2023/01/13 06:26:47;;;;;;;1.33;1.33;;;;;;;4.88;70.50;100841.03;18384992;32;20110;-57
2023/01/13 06:36:53;;;;;;;7.32;1.12;;;;;;;5.38;68.97;100845.00;18421294;32;20097;-57
2023/01/13 06:46:57;;;;;;;1.35;1.35;;;;;;;5.32;69.25;100856.06;18420742;32;20111;-58
2023/01/13 06:57:01;;;;;;;0.85;0.85;;;;;;;5.57;68.51;100861.88;18421858;32;20112;-58
2023/01/13 07:07:06;;;;;;;0.82;0.82;;;;;;;5.60;68.14;100866.25;18418637;32;20093;-58
2023/01/13 07:17:11;;;;;;;0.70;0.70;;;;;;;5.79;67.92;100875.38;18420359;32;20392;-58
2023/01/13 07:27:14;;;;;;;0.80;0.80;;;;;;;5.69;68.60;100869.97;18419976;32;20125;-57
2023/01/13 07:37:22;;;;;;;2.10;1.98;;;;;;;5.81;68.50;100871.97;18420343;32;20080;-57
2023/01/13 07:47:26;;;;;;;3.80;3.47;;;;;;;5.82;68.86;100878.03;18417888;32;20192;-57
2023/01/13 07:57:30;;;;;;;1.17;1.10;;;;;;;6.20;68.56;100870.34;18416322;32;20092;-57
2023/01/13 08:07:34;;;;;;;1.40;1.00;;;;;;;6.58;68.31;100878.97;18362104;32;20105;-58
2023/01/13 08:17:39;;;;;;;1.70;1.52;;;;;;;6.67;67.96;100892.13;18407944;32;20141;-59
2023/01/13 08:27:42;;;;;;;0.55;0.55;;;;;;;6.82;67.75;100907.16;18417075;32;20096;-59
2023/01/13 08:37:47;;;;;;;0.93;0.93;;;;;;;6.86;67.43;100910.69;18404856;32;20104;-59
2023/01/13 08:47:50;;;;;;;1.23;1.23;;;;;;;5.97;69.73;100919.00;18382840;32;20523;-59
2023/01/13 08:57:55;;;;;;;2.20;1.58;;;;;;;6.21;68.29;100918.75;18381382;31;20357;-60
2023/01/13 09:08:20;;;;;;;1.15;1.15;;;;;;;6.51;67.67;100924.66;18392940;32;20106;-60
2023/01/13 09:18:26;;;;;;;0.62;0.62;;;;;;;6.49;68.03;100914.22;18407063;32;20101;-57
2023/01/13 09:28:29;;;;;;;1.95;1.37;;;;;;;6.76;67.93;100901.81;18386126;32;20107;-57
2023/01/13 09:38:37;;;;;;;1.33;1.25;;;;;;;7.07;67.71;100887.78;18389138;31;20137;-57
2023/01/13 09:48:51;;;;;;;2.08;1.12;;;;;;;7.41;68.35;100897.09;18388973;32;20140;-59
2023/01/13 09:58:56;;;;;;;1.70;1.60;;;;;;;7.83;65.43;100898.69;18387682;31;20101;-59
2023/01/13 10:08:59;;;;;;;0.50;0.50;;;;;;;7.48;65.56;100894.63;18398641;32;20109;-58
2023/01/13 10:19:14;;;;;;;1.65;1.25;;;;;;;7.31;65.36;100886.53;18372772;32;20183;-60
2023/01/13 10:29:20;;;;;;;1.00;1.00;;;;;;;7.40;64.80;100892.69;18377058;32;20090;-59
2023/01/13 10:39:25;;;;;;;4.15;3.35;;;;;;;7.78;64.60;100879.56;18410849;32;20098;-59
2023/01/13 10:49:32;;;;;;;1.08;1.05;;;;;;;7.57;63.18;100867.91;18381191;32;20104;-59
2023/01/13 10:59:37;;;;;;;0.62;0.62;;;;;;;7.38;63.67;100850.25;18357643;31;20093;-59
2023/01/13 11:09:41;;;;;;;0.93;0.90;;;;;;;7.22;65.36;100844.78;18360518;32;20456;-59
2023/01/13 11:19:50;;;;;;;0.60;0.60;;;;;;;6.98;66.10;100835.66;18378226;32;20093;-59
2023/01/13 11:30:00;;;;;;;3.15;2.85;;;;;;;7.50;63.88;100835.75;18420054;32;20093;-59
2023/01/13 11:40:12;;;;;;;2.70;2.12;;;;;;;7.50;64.31;100808.94;18372566;32;20092;-59
2023/01/13 11:50:24;;;;;;;2.80;2.55;;;;;;;7.00;64.98;100804.56;18395433;32;20733;-59
2023/01/13 12:00:37;;;;;;;0.63;0.63;;;;;;;7.12;64.90;100775.38;18478262;31;21528;-57
2023/01/13 12:10:47;;;;;;;0.95;0.95;;;;;;;7.02;65.18;100762.22;18667233;31;20154;-57
2023/01/13 12:21:02;;;;;;;0.65;0.65;;;;;;;6.82;66.23;100750.56;18673351;31;20378;-59
2023/01/13 12:31:06;;;;;;;2.08;1.08;;;;;;;7.26;64.94;100758.28;18638941;31;20092;-59
2023/01/13 12:41:16;;;;;;;1.00;1.00;;;;;;;7.45;64.20;100762.09;18664667;31;20391;-60
2023/01/13 12:51:25;;;;;;;1.27;1.17;;;;;;;7.44;64.51;100762.06;18670511;31;20112;-60
2023/01/13 13:01:36;;;;;;;1.10;1.10;;;;;;;7.66;63.25;100747.69;18570258;31;20113;-59
2023/01/13 13:22:44;;;;;;;5.65;5.18;;;;;;;8.02;62.36;100759.47;18382452;32;20245;-57
2023/01/13 13:32:59;;;;;;;0.62;0.62;;;;;;;7.85;62.48;100753.16;18409218;32;20122;-57
2023/01/13 13:53:27;;;;;;;0.65;0.65;;;;;;;7.95;62.69;100761.94;18423523;32;20117;-59
2023/01/13 14:03:34;;;;;;;1.52;1.42;;;;;;;7.57;64.09;100779.56;18389210;31;20105;-59
2023/01/13 14:13:40;;;;;;;1.35;1.27;;;;;;;7.84;63.76;100765.28;18392464;32;20441;-59
2023/01/13 14:23:50;;;;;;;0.70;0.70;;;;;;;7.94;63.16;100768.91;18385181;32;20112;-60
2023/01/13 14:33:55;;;;;;;0.98;0.98;;;;;;;8.04;63.37;100760.38;18389058;32;20442;-59
2023/01/13 14:44:02;;;;;;;1.05;0.98;;;;;;;8.14;63.14;100770.91;18384603;32;20145;-59
2023/01/13 14:54:45;;;;;;;0.80;0.80;;;;;;;7.99;63.66;100789.75;18381330;32;20089;-59
2023/01/13 15:04:52;;;;;;;0.60;0.60;;;;;;;8.09;63.38;100767.34;18385206;31;20120;-59
2023/01/13 15:14:56;;;;;;;0.68;0.68;;;;;;;8.19;63.41;100780.50;18387473;32;20089;-59
2023/01/13 15:25:01;;;;;;;5.87;3.40;;;;;;;8.21;63.75;100767.53;18386917;32;20097;-59
2023/01/13 15:35:04;;;;;;;2.12;2.03;;;;;;;8.24;63.49;100772.78;18384853;32;20172;-59
2023/01/13 15:55:35;;;;;;;0.50;0.50;;;;;;;8.56;63.07;100779.28;18384384;32;20500;-60
2023/01/13 16:05:39;;;;;;;2.00;1.58;;;;;;;8.38;64.44;100785.06;18390261;32;20165;-59
2023/01/13 16:15:44;;;;;;;1.58;1.52;;;;;;;8.32;65.44;100794.56;18379955;32;20097;-59
2023/01/13 16:25:49;;;;;;;2.05;1.95;;;;;;;8.36;65.61;100798.06;18351295;32;20126;-59
2023/01/13 16:35:53;;;;;;;1.02;1.02;;;;;;;8.21;65.91;100790.94;18354171;32;20085;-59
2023/01/13 16:46:21;;;;;;;1.75;1.62;;;;;;;8.50;65.20;100797.38;18353253;32;20138;-59
2023/01/13 16:56:26;;;;;;;0.93;0.93;;;;;;;8.31;66.22;100811.03;18352506;32;20104;-59
2023/01/13 17:06:33;;;;;;;0.50;0.50;;;;;;;8.39;66.14;100803.31;18352033;32;20111;-59
2023/01/13 17:16:41;;;;;;;1.20;1.20;;;;;;;8.45;65.91;100813.81;18351943;32;20464;-59
2023/01/13 17:26:48;;;;;;;0.98;0.98;;;;;;;8.52;65.58;100813.91;18359182;32;20089;-59
2023/01/13 17:36:51;;;;;;;0.95;0.95;;;;;;;8.54;65.59;100812.22;18361453;32;20085;-59
2023/01/13 17:46:56;;;;;;;0.93;0.93;;;;;;;8.49;65.74;100817.31;18360884;32;20120;-59
2023/01/13 17:56:59;;;;;;;0.80;0.80;;;;;;;8.58;65.51;100824.41;18361410;32;20515;-59
2023/01/13 18:07:04;;;;;;;0.77;0.77;;;;;;;8.53;65.43;100829.53;18359656;32;20474;-59
2023/01/13 18:17:07;;;;;;;3.22;2.92;;;;;;;8.56;65.47;100818.31;18370226;32;20108;-59
2023/01/13 18:27:22;;;;;;;2.47;2.15;;;;;;;8.46;65.93;100831.16;18398346;32;20153;-58
2023/01/13 18:37:28;;;;;;;1.98;1.87;;;;;;;8.55;65.50;100824.38;18369905;32;20112;-58
2023/01/13 18:47:38;;;;;;;1.20;1.20;;;;;;;8.53;65.90;100831.25;18388473;32;20112;-58
2023/01/13 18:57:42;;;;;;;1.25;1.20;;;;;;;8.55;65.61;100832.19;18416550;31;20096;-58
2023/01/13 19:07:49;;;;;;;0.80;0.80;;;;;;;8.55;65.54;100825.22;18364086;32;20093;-57
2023/01/13 19:17:53;;;;;;;1.95;1.85;;;;;;;8.46;65.71;100835.47;18387621;32;20092;-57
2023/01/13 19:27:58;;;;;;;1.62;1.52;;;;;;;8.50;65.39;100837.28;18417957;32;20115;-58
2023/01/13 19:38:01;;;;;;;2.25;2.05;;;;;;;8.41;65.81;100843.22;18408315;32;20107;-58
2023/01/13 19:48:08;;;;;;;1.58;1.17;;;;;;;8.46;65.57;100861.50;18388608;32;20142;-58
2023/01/13 19:58:11;;;;;;;1.73;1.62;;;;;;;8.45;65.82;100876.25;18402147;32;172673;-57
2023/01/13 20:08:16;;;;;;;1.33;1.23;;;;;;;8.60;65.42;100885.16;18419065;32;20115;-58
2023/01/13 20:18:20;;;;;;;0.75;0.75;;;;;;;8.62;65.33;100886.03;18370011;32;20140;-57
2023/01/13 20:28:25;;;;;;;1.25;1.20;;;;;;;8.50;65.54;100872.81;18355127;32;20094;-58
2023/01/13 20:38:34;;;;;;;1.73;1.62;;;;;;;8.44;65.95;100923.94;18408048;32;20089;-58
2023/01/13 20:48:39;;;;;;;1.35;1.25;;;;;;;8.44;66.32;100938.66;18368642;32;20092;-58
2023/01/13 20:58:43;;;;;;;0.77;0.77;;;;;;;7.60;70.08;100899.16;18390805;32;20119;-57
2023/01/13 21:08:48;;;;;;;1.27;1.23;;;;;;;7.85;69.52;100891.78;18424551;32;20105;-57
2023/01/13 21:19:06;;;;;;;0.88;0.88;;;;;;;8.05;69.26;100897.31;18424881;32;20093;-57
2023/01/13 21:29:11;;;;;;;8.48;1.40;;;;;;;8.12;69.30;100898.28;18365183;32;20137;-57
2023/01/13 21:39:14;;;;;;;1.42;1.05;;;;;;;6.96;74.49;100889.28;18382755;32;20390;-59
2023/01/13 21:49:19;;;;;;;0.82;0.82;;;;;;;7.85;70.40;100876.19;18412853;31;20120;-57
2023/01/13 21:59:22;;;;;;;0.80;0.80;;;;;;;8.15;69.31;100872.31;18424520;31;20096;-58
2023/01/13 22:09:27;;;;;;;2.58;2.37;;;;;;;8.19;68.93;100842.03;18360506;32;20459;-58
2023/01/13 22:19:30;;;;;;;1.80;1.70;;;;;;;8.39;68.26;100922.97;18352378;32;20109;-60
2023/01/13 22:29:36;;;;;;;1.92;1.83;;;;;;;8.23;68.82;100973.00;18369046;32;20158;-58
2023/01/13 22:39:39;;;;;;;1.75;1.45;;;;;;;8.28;69.06;100972.22;18398269;32;20524;-58
2023/01/13 22:49:46;;;;;;;3.42;2.70;;;;;;;7.91;70.74;100940.41;18407948;32;20105;-57
2023/01/13 22:59:49;;;;;;;0.70;0.70;;;;;;;8.35;68.66;100917.72;18356614;32;20157;-57
2023/01/13 23:09:54;;;;;;;1.08;1.08;;;;;;;7.88;71.08;100915.25;18357565;32;20112;-58
2023/01/13 23:19:57;;;;;;;0.82;0.82;;;;;;;8.51;68.04;100905.81;18356678;32;20134;-58
2023/01/13 23:30:01;;;;;;;1.10;1.02;;;;;;;8.36;68.74;100896.94;18356746;32;20094;-57
2023/01/13 23:40:08;;;;;;;2.50;2.03;;;;;;;8.40;68.63;100888.31;18382747;32;20092;-58
2023/01/13 23:50:13;;;;;;;4.35;1.80;;;;;;;8.11;69.57;100906.06;18419800;32;20085;-57
